ムルマンスク の空港の天気 - METARとTAF

ムルマンスク空港 ( ULMM / MMK ) - ロシア ムルマンスク
飛行場実況気象(Metar)
観測時間10/19 21:00 MSK (10/19 18:00 UTC)
風向・風速西 1m/s
視程10km以上
天気現象
全天を覆う雲 雲底高度 90m
気温1℃
湿度93%
気圧1011hPa
METARULMM 191800Z 28001MPS 9999 OVC003 01/00 Q1011 R31/290060 NOSIG RMK QBB090 OBST OBSC QFE751
過去の天気等 Google飛行場航空写真 Wunderground天気予報

過去48時間のMETAR

飛行場予報(TAF)
発表時間: 10/19 19:50 MSK (10/19 16:50 UTC)
予報対象時間: 19日21時 MSK ~ 20日21時 MSK
風向・風速南西 3m/s 瞬間風速 8m/s
視程3100m
天気現象もや
全天の8割程度の雲 雲底高度 120m
全天の8割程度の雲 雲底高度 340m
19日21時 MSK ~ 20日10時 MSK に一時的に
風向・風速西南西 3m/s
視程300m
天気現象弱い霧雨 霧
全天の8割程度の雲 雲底高度 60m
全天を覆う雲 雲底高度 340m
20日10時 MSK ~ 20日12時 MSK に徐々に
視程6000m
天気現象運行に影響にある天気現象が終了
全天の8割程度の雲 雲底高度 340m
20日12時 MSK ~ 20日21時 MSK に一時的に
風向・風速南南西 3m/s
視程3100m
天気現象弱いしゅう雨 もや
全天の8割程度の雲 雲底高度 180m
全天の8割程度の積乱雲 雲底高度 340m
TAF ULMM 191650Z 1918/2018 23003G08MPS 3100 BR BKN004 BKN011
TEMPO 1918/2007 25003MPS 0300 -DZ FG BKN002 OVC011
BECMG 2007/2009 6000 NSW BKN011
TEMPO 2009/2018 21003MPS 3100 -SHRA BR BKN006 BKN011CB